Grantsburg, Indiana
Current Conditions -  °F | °C
As of 3:55 PM on Sunday 23 Nov 2014 (Local Time) from KHNB Reporting Station
Overcast Overcast  
Wind Chill: 55°   Ceiling: 1700
Heat Index: 55°   Visibility: 10mi
Dew Point: 52°   Wind: 14mph
Humidity: 88%   Direction: 140°SE
Pressure: 29.48"   Gusts: 17mph
Location:  38.29°N, 86.47°W
Report Text: KHNB 232055Z AUTO 14012G15KT 10SM SCT010 OVC017 13/11 A2948 RMK AO1 P0012 60018 57064
Loading
Personal Weather Stations






























Interactive Weather Map New forecast layout! Learn more

10-Day Weather Forecast

Advertisements
Track Severe Weather on mobile